sensor_id;sensor_type;location;lat;lon;timestamp;P1;durP1;ratioP1;P2;durP2;ratioP2
27223;SDS011;14965;50.660;13.226;2022-11-15T00:00:00;32.63;;;16.70;;
27223;SDS011;14965;50.660;13.226;2022-11-15T00:02:26;33.97;;;16.70;;
27223;SDS011;14965;50.660;13.226;2022-11-15T00:04:52;32.22;;;16.80;;
27223;SDS011;14965;50.660;13.226;2022-11-15T00:07:19;30.33;;;17.15;;
27223;SDS011;14965;50.660;13.226;2022-11-15T00:09:45;32.60;;;17.17;;
27223;SDS011;14965;50.660;13.226;2022-11-15T00:12:11;28.80;;;15.63;;
27223;SDS011;14965;50.660;13.226;2022-11-15T00:14:37;30.17;;;16.05;;
27223;SDS011;14965;50.660;13.226;2022-11-15T00:17:03;29.48;;;15.43;;
27223;SDS011;14965;50.660;13.226;2022-11-15T00:19:29;31.75;;;16.20;;
27223;SDS011;14965;50.660;13.226;2022-11-15T00:21:55;29.63;;;15.43;;
27223;SDS011;14965;50.660;13.226;2022-11-15T00:24:22;30.40;;;17.05;;
27223;SDS011;14965;50.660;13.226;2022-11-15T00:26:51;34.05;;;16.77;;
27223;SDS011;14965;50.660;13.226;2022-11-15T00:29:18;32.00;;;17.77;;
27223;SDS011;14965;50.660;13.226;2022-11-15T00:31:46;30.55;;;17.38;;
27223;SDS011;14965;50.660;13.226;2022-11-15T00:34:12;34.78;;;18.85;;
27223;SDS011;14965;50.660;13.226;2022-11-15T00:36:39;34.83;;;18.25;;
27223;SDS011;14965;50.660;13.226;2022-11-15T00:39:05;32.30;;;16.98;;
27223;SDS011;14965;50.660;13.226;2022-11-15T00:41:32;32.60;;;18.65;;
27223;SDS011;14965;50.660;13.226;2022-11-15T00:43:58;35.45;;;18.67;;
27223;SDS011;14965;50.660;13.226;2022-11-15T00:46:24;35.72;;;18.42;;
27223;SDS011;14965;50.660;13.226;2022-11-15T00:48:50;33.28;;;17.60;;
27223;SDS011;14965;50.660;13.226;2022-11-15T00:51:16;36.40;;;18.55;;
27223;SDS011;14965;50.660;13.226;2022-11-15T00:53:42;34.78;;;18.15;;
27223;SDS011;14965;50.660;13.226;2022-11-15T00:56:08;33.60;;;18.10;;
27223;SDS011;14965;50.660;13.226;2022-11-15T00:58:35;36.00;;;17.58;;
27223;SDS011;14965;50.660;13.226;2022-11-15T01:01:05;32.90;;;18.33;;
27223;SDS011;14965;50.660;13.226;2022-11-15T01:03:34;31.65;;;17.58;;
27223;SDS011;14965;50.660;13.226;2022-11-15T01:06:00;37.20;;;17.63;;
27223;SDS011;14965;50.660;13.226;2022-11-15T01:08:26;29.60;;;17.15;;
27223;SDS011;14965;50.660;13.226;2022-11-15T01:10:53;33.97;;;18.08;;
27223;SDS011;14965;50.660;13.226;2022-11-15T01:13:19;33.15;;;18.02;;
27223;SDS011;14965;50.660;13.226;2022-11-15T01:15:46;35.22;;;17.77;;
27223;SDS011;14965;50.660;13.226;2022-11-15T01:18:12;30.50;;;15.93;;
27223;SDS011;14965;50.660;13.226;2022-11-15T01:20:39;30.95;;;16.27;;
27223;SDS011;14965;50.660;13.226;2022-11-15T01:23:05;34.55;;;16.80;;
27223;SDS011;14965;50.660;13.226;2022-11-15T01:25:31;32.17;;;16.50;;
27223;SDS011;14965;50.660;13.226;2022-11-15T01:27:57;32.75;;;17.77;;
27223;SDS011;14965;50.660;13.226;2022-11-15T01:30:23;29.30;;;16.40;;
27223;SDS011;14965;50.660;13.226;2022-11-15T01:32:50;34.75;;;17.55;;
27223;SDS011;14965;50.660;13.226;2022-11-15T01:35:16;33.17;;;17.92;;
27223;SDS011;14965;50.660;13.226;2022-11-15T01:37:42;36.17;;;17.85;;
27223;SDS011;14965;50.660;13.226;2022-11-15T01:40:08;31.25;;;17.42;;
27223;SDS011;14965;50.660;13.226;2022-11-15T01:42:35;34.45;;;18.00;;
27223;SDS011;14965;50.660;13.226;2022-11-15T01:45:01;30.85;;;17.55;;
27223;SDS011;14965;50.660;13.226;2022-11-15T01:47:31;32.78;;;17.30;;
27223;SDS011;14965;50.660;13.226;2022-11-15T01:50:05;32.80;;;16.92;;
27223;SDS011;14965;50.660;13.226;2022-11-15T01:52:35;32.33;;;16.60;;
27223;SDS011;14965;50.660;13.226;2022-11-15T01:55:05;32.42;;;17.42;;
27223;SDS011;14965;50.660;13.226;2022-11-15T01:57:39;31.42;;;16.13;;
27223;SDS011;14965;50.660;13.226;2022-11-15T02:00:11;33.75;;;17.65;;
27223;SDS011;14965;50.660;13.226;2022-11-15T02:02:39;30.65;;;16.55;;
27223;SDS011;14965;50.660;13.226;2022-11-15T02:05:07;31.75;;;16.55;;
27223;SDS011;14965;50.660;13.226;2022-11-15T02:07:34;31.83;;;16.55;;
27223;SDS011;14965;50.660;13.226;2022-11-15T02:10:03;31.30;;;16.58;;
27223;SDS011;14965;50.660;13.226;2022-11-15T02:12:35;29.67;;;16.17;;
27223;SDS011;14965;50.660;13.226;2022-11-15T02:15:01;32.97;;;17.23;;
27223;SDS011;14965;50.660;13.226;2022-11-15T02:17:33;31.58;;;16.70;;
27223;SDS011;14965;50.660;13.226;2022-11-15T02:20:33;29.23;;;16.02;;
27223;SDS011;14965;50.660;13.226;2022-11-15T02:23:20;25.90;;;14.95;;
27223;SDS011;14965;50.660;13.226;2022-11-15T02:26:24;32.15;;;16.60;;
27223;SDS011;14965;50.660;13.226;2022-11-15T02:29:22;31.58;;;16.52;;
27223;SDS011;14965;50.660;13.226;2022-11-15T02:32:12;29.83;;;16.42;;
27223;SDS011;14965;50.660;13.226;2022-11-15T02:34:48;30.65;;;15.88;;
27223;SDS011;14965;50.660;13.226;2022-11-15T02:37:26;34.17;;;17.43;;
27223;SDS011;14965;50.660;13.226;2022-11-15T02:40:05;31.08;;;16.50;;
27223;SDS011;14965;50.660;13.226;2022-11-15T02:42:39;32.10;;;17.00;;
27223;SDS011;14965;50.660;13.226;2022-11-15T02:45:16;33.10;;;16.23;;
27223;SDS011;14965;50.660;13.226;2022-11-15T02:47:49;30.90;;;16.85;;
27223;SDS011;14965;50.660;13.226;2022-11-15T02:50:25;32.40;;;16.20;;
27223;SDS011;14965;50.660;13.226;2022-11-15T02:52:54;29.33;;;15.75;;
27223;SDS011;14965;50.660;13.226;2022-11-15T02:55:24;32.50;;;16.10;;
27223;SDS011;14965;50.660;13.226;2022-11-15T02:57:57;31.05;;;17.17;;
27223;SDS011;14965;50.660;13.226;2022-11-15T03:00:45;28.33;;;16.00;;
27223;SDS011;14965;50.660;13.226;2022-11-15T03:03:29;30.48;;;15.85;;
27223;SDS011;14965;50.660;13.226;2022-11-15T03:06:20;31.90;;;17.20;;
27223;SDS011;14965;50.660;13.226;2022-11-15T03:08:57;35.08;;;17.23;;
27223;SDS011;14965;50.660;13.226;2022-11-15T03:11:34;35.90;;;18.80;;
27223;SDS011;14965;50.660;13.226;2022-11-15T03:14:07;37.03;;;19.90;;
27223;SDS011;14965;50.660;13.226;2022-11-15T03:16:47;40.70;;;21.00;;
27223;SDS011;14965;50.660;13.226;2022-11-15T03:19:25;33.22;;;18.88;;
27223;SDS011;14965;50.660;13.226;2022-11-15T03:22:01;33.28;;;18.25;;
27223;SDS011;14965;50.660;13.226;2022-11-15T03:24:33;36.45;;;19.25;;
27223;SDS011;14965;50.660;13.226;2022-11-15T03:27:03;36.80;;;19.42;;
27223;SDS011;14965;50.660;13.226;2022-11-15T03:29:35;36.28;;;20.15;;
27223;SDS011;14965;50.660;13.226;2022-11-15T03:32:10;39.72;;;19.88;;
27223;SDS011;14965;50.660;13.226;2022-11-15T03:34:43;33.80;;;18.30;;
27223;SDS011;14965;50.660;13.226;2022-11-15T03:37:17;35.05;;;18.33;;
27223;SDS011;14965;50.660;13.226;2022-11-15T03:39:47;33.00;;;17.63;;
27223;SDS011;14965;50.660;13.226;2022-11-15T03:42:16;34.33;;;17.92;;
27223;SDS011;14965;50.660;13.226;2022-11-15T03:44:51;33.90;;;17.95;;
27223;SDS011;14965;50.660;13.226;2022-11-15T03:47:27;34.88;;;17.45;;
27223;SDS011;14965;50.660;13.226;2022-11-15T03:50:02;36.00;;;18.30;;
27223;SDS011;14965;50.660;13.226;2022-11-15T03:52:35;35.25;;;18.27;;
27223;SDS011;14965;50.660;13.226;2022-11-15T03:55:01;34.55;;;17.85;;
27223;SDS011;14965;50.660;13.226;2022-11-15T03:57:30;37.90;;;19.17;;
27223;SDS011;14965;50.660;13.226;2022-11-15T03:59:56;44.22;;;22.15;;
27223;SDS011;14965;50.660;13.226;2022-11-15T04:02:22;47.55;;;22.65;;
27223;SDS011;14965;50.660;13.226;2022-11-15T04:04:48;41.40;;;21.25;;
27223;SDS011;14965;50.660;13.226;2022-11-15T04:07:16;41.83;;;22.02;;
27223;SDS011;14965;50.660;13.226;2022-11-15T04:09:41;41.40;;;22.20;;
27223;SDS011;14965;50.660;13.226;2022-11-15T04:12:07;38.85;;;20.85;;
27223;SDS011;14965;50.660;13.226;2022-11-15T04:14:33;42.40;;;21.58;;
27223;SDS011;14965;50.660;13.226;2022-11-15T04:16:59;40.95;;;20.58;;
27223;SDS011;14965;50.660;13.226;2022-11-15T04:19:25;39.95;;;20.05;;
27223;SDS011;14965;50.660;13.226;2022-11-15T04:21:51;41.17;;;20.70;;
27223;SDS011;14965;50.660;13.226;2022-11-15T04:24:18;37.28;;;19.85;;
27223;SDS011;14965;50.660;13.226;2022-11-15T04:26:44;40.35;;;20.60;;
27223;SDS011;14965;50.660;13.226;2022-11-15T04:29:10;45.80;;;21.17;;
27223;SDS011;14965;50.660;13.226;2022-11-15T04:31:36;41.33;;;21.63;;
27223;SDS011;14965;50.660;13.226;2022-11-15T04:34:02;40.15;;;20.33;;
27223;SDS011;14965;50.660;13.226;2022-11-15T04:36:28;41.88;;;21.02;;
27223;SDS011;14965;50.660;13.226;2022-11-15T04:38:54;44.15;;;22.13;;
27223;SDS011;14965;50.660;13.226;2022-11-15T04:41:21;40.88;;;21.10;;
27223;SDS011;14965;50.660;13.226;2022-11-15T04:43:47;41.13;;;21.63;;
27223;SDS011;14965;50.660;13.226;2022-11-15T04:46:13;36.35;;;19.48;;
27223;SDS011;14965;50.660;13.226;2022-11-15T04:48:39;39.10;;;20.52;;
27223;SDS011;14965;50.660;13.226;2022-11-15T04:51:05;40.75;;;20.20;;
27223;SDS011;14965;50.660;13.226;2022-11-15T04:53:31;43.45;;;21.92;;
27223;SDS011;14965;50.660;13.226;2022-11-15T04:55:58;39.92;;;21.55;;
27223;SDS011;14965;50.660;13.226;2022-11-15T04:58:25;41.42;;;21.45;;
27223;SDS011;14965;50.660;13.226;2022-11-15T05:00:51;42.22;;;21.27;;
27223;SDS011;14965;50.660;13.226;2022-11-15T05:03:17;38.63;;;19.80;;
27223;SDS011;14965;50.660;13.226;2022-11-15T05:05:43;40.58;;;20.58;;
27223;SDS011;14965;50.660;13.226;2022-11-15T05:08:09;43.55;;;20.00;;
27223;SDS011;14965;50.660;13.226;2022-11-15T05:10:35;41.25;;;20.50;;
27223;SDS011;14965;50.660;13.226;2022-11-15T05:13:01;34.78;;;19.23;;
27223;SDS011;14965;50.660;13.226;2022-11-15T05:15:28;43.67;;;21.50;;
27223;SDS011;14965;50.660;13.226;2022-11-15T05:17:56;46.28;;;21.52;;
27223;SDS011;14965;50.660;13.226;2022-11-15T05:20:23;43.08;;;20.98;;
27223;SDS011;14965;50.660;13.226;2022-11-15T05:22:49;42.03;;;20.88;;
27223;SDS011;14965;50.660;13.226;2022-11-15T05:25:15;38.55;;;19.98;;
27223;SDS011;14965;50.660;13.226;2022-11-15T05:27:41;39.70;;;20.50;;
27223;SDS011;14965;50.660;13.226;2022-11-15T05:30:07;41.20;;;20.55;;
27223;SDS011;14965;50.660;13.226;2022-11-15T05:32:35;45.05;;;22.42;;
27223;SDS011;14965;50.660;13.226;2022-11-15T05:35:02;46.40;;;22.90;;
27223;SDS011;14965;50.660;13.226;2022-11-15T05:37:32;38.55;;;21.55;;
27223;SDS011;14965;50.660;13.226;2022-11-15T05:39:58;46.55;;;23.60;;
27223;SDS011;14965;50.660;13.226;2022-11-15T05:42:24;41.72;;;22.38;;
27223;SDS011;14965;50.660;13.226;2022-11-15T05:44:52;38.63;;;18.98;;
27223;SDS011;14965;50.660;13.226;2022-11-15T05:47:19;37.55;;;19.75;;
27223;SDS011;14965;50.660;13.226;2022-11-15T05:49:51;42.47;;;21.15;;
27223;SDS011;14965;50.660;13.226;2022-11-15T05:52:19;42.17;;;20.00;;
27223;SDS011;14965;50.660;13.226;2022-11-15T05:54:50;33.70;;;17.70;;
27223;SDS011;14965;50.660;13.226;2022-11-15T05:57:17;32.25;;;16.55;;
27223;SDS011;14965;50.660;13.226;2022-11-15T05:59:44;31.65;;;17.33;;
27223;SDS011;14965;50.660;13.226;2022-11-15T06:02:10;32.72;;;16.35;;
27223;SDS011;14965;50.660;13.226;2022-11-15T06:04:36;34.28;;;19.23;;
27223;SDS011;14965;50.660;13.226;2022-11-15T06:07:03;38.95;;;18.67;;
27223;SDS011;14965;50.660;13.226;2022-11-15T06:09:29;36.00;;;18.35;;
27223;SDS011;14965;50.660;13.226;2022-11-15T06:11:55;39.13;;;21.00;;
27223;SDS011;14965;50.660;13.226;2022-11-15T06:14:21;41.35;;;20.48;;
27223;SDS011;14965;50.660;13.226;2022-11-15T06:16:47;37.40;;;19.13;;
27223;SDS011;14965;50.660;13.226;2022-11-15T06:19:13;34.05;;;18.23;;
27223;SDS011;14965;50.660;13.226;2022-11-15T06:21:39;34.20;;;18.20;;
27223;SDS011;14965;50.660;13.226;2022-11-15T06:24:07;30.83;;;16.90;;
27223;SDS011;14965;50.660;13.226;2022-11-15T06:26:33;34.53;;;17.63;;
27223;SDS011;14965;50.660;13.226;2022-11-15T06:28:59;32.50;;;17.65;;
27223;SDS011;14965;50.660;13.226;2022-11-15T06:31:25;35.13;;;18.00;;
27223;SDS011;14965;50.660;13.226;2022-11-15T06:33:50;32.75;;;17.23;;
27223;SDS011;14965;50.660;13.226;2022-11-15T06:36:16;32.05;;;17.45;;
27223;SDS011;14965;50.660;13.226;2022-11-15T06:38:43;30.30;;;16.15;;
27223;SDS011;14965;50.660;13.226;2022-11-15T06:41:10;30.13;;;16.05;;
27223;SDS011;14965;50.660;13.226;2022-11-15T06:43:38;33.53;;;17.33;;
27223;SDS011;14965;50.660;13.226;2022-11-15T06:46:05;30.95;;;16.40;;
27223;SDS011;14965;50.660;13.226;2022-11-15T06:48:32;30.67;;;16.73;;
27223;SDS011;14965;50.660;13.226;2022-11-15T06:51:00;30.67;;;15.80;;
27223;SDS011;14965;50.660;13.226;2022-11-15T06:53:27;29.75;;;15.65;;
27223;SDS011;14965;50.660;13.226;2022-11-15T06:55:57;27.08;;;14.90;;
27223;SDS011;14965;50.660;13.226;2022-11-15T06:58:26;27.40;;;15.93;;
27223;SDS011;14965;50.660;13.226;2022-11-15T07:00:52;34.75;;;16.45;;
27223;SDS011;14965;50.660;13.226;2022-11-15T07:03:18;33.55;;;17.38;;
27223;SDS011;14965;50.660;13.226;2022-11-15T07:05:49;32.20;;;17.88;;
27223;SDS011;14965;50.660;13.226;2022-11-15T07:08:17;30.48;;;16.60;;
27223;SDS011;14965;50.660;13.226;2022-11-15T07:10:43;25.90;;;14.05;;
27223;SDS011;14965;50.660;13.226;2022-11-15T07:13:09;24.50;;;14.15;;
27223;SDS011;14965;50.660;13.226;2022-11-15T07:15:36;24.02;;;14.05;;
27223;SDS011;14965;50.660;13.226;2022-11-15T07:18:02;22.38;;;13.98;;
27223;SDS011;14965;50.660;13.226;2022-11-15T07:20:28;29.05;;;14.77;;
27223;SDS011;14965;50.660;13.226;2022-11-15T07:22:59;23.63;;;13.20;;
27223;SDS011;14965;50.660;13.226;2022-11-15T07:25:25;20.77;;;12.10;;
27223;SDS011;14965;50.660;13.226;2022-11-15T07:27:53;20.25;;;11.90;;
27223;SDS011;14965;50.660;13.226;2022-11-15T07:30:22;21.77;;;13.00;;
27223;SDS011;14965;50.660;13.226;2022-11-15T07:32:53;21.63;;;12.30;;
27223;SDS011;14965;50.660;13.226;2022-11-15T07:35:20;20.13;;;11.77;;
27223;SDS011;14965;50.660;13.226;2022-11-15T07:37:53;18.02;;;11.32;;
27223;SDS011;14965;50.660;13.226;2022-11-15T07:40:20;19.73;;;11.15;;
27223;SDS011;14965;50.660;13.226;2022-11-15T07:42:46;20.23;;;11.60;;
27223;SDS011;14965;50.660;13.226;2022-11-15T07:45:12;21.42;;;12.05;;
27223;SDS011;14965;50.660;13.226;2022-11-15T07:47:38;20.35;;;11.32;;
27223;SDS011;14965;50.660;13.226;2022-11-15T07:50:06;20.95;;;10.98;;
27223;SDS011;14965;50.660;13.226;2022-11-15T07:52:32;18.07;;;10.40;;
27223;SDS011;14965;50.660;13.226;2022-11-15T07:54:58;15.32;;;9.82;;
27223;SDS011;14965;50.660;13.226;2022-11-15T07:57:24;16.15;;;9.73;;
27223;SDS011;14965;50.660;13.226;2022-11-15T07:59:50;15.30;;;8.88;;
27223;SDS011;14965;50.660;13.226;2022-11-15T08:02:16;18.50;;;10.63;;
27223;SDS011;14965;50.660;13.226;2022-11-15T08:04:42;13.32;;;8.55;;
27223;SDS011;14965;50.660;13.226;2022-11-15T08:07:09;19.52;;;11.27;;
27223;SDS011;14965;50.660;13.226;2022-11-15T08:09:35;18.33;;;9.60;;
27223;SDS011;14965;50.660;13.226;2022-11-15T08:12:01;15.80;;;8.73;;
27223;SDS011;14965;50.660;13.226;2022-11-15T08:14:27;16.77;;;9.75;;
27223;SDS011;14965;50.660;13.226;2022-11-15T08:16:53;13.98;;;9.18;;
27223;SDS011;14965;50.660;13.226;2022-11-15T08:19:20;15.93;;;9.02;;
27223;SDS011;14965;50.660;13.226;2022-11-15T08:21:46;13.07;;;8.65;;
27223;SDS011;14965;50.660;13.226;2022-11-15T08:24:13;15.13;;;8.15;;
27223;SDS011;14965;50.660;13.226;2022-11-15T08:26:40;13.07;;;8.07;;
27223;SDS011;14965;50.660;13.226;2022-11-15T08:29:07;13.40;;;8.65;;
27223;SDS011;14965;50.660;13.226;2022-11-15T08:31:33;12.13;;;8.32;;
27223;SDS011;14965;50.660;13.226;2022-11-15T08:34:00;14.88;;;7.95;;
27223;SDS011;14965;50.660;13.226;2022-11-15T08:36:26;11.60;;;7.82;;
27223;SDS011;14965;50.660;13.226;2022-11-15T08:38:52;12.45;;;8.00;;
27223;SDS011;14965;50.660;13.226;2022-11-15T08:41:22;13.80;;;8.13;;
27223;SDS011;14965;50.660;13.226;2022-11-15T08:43:53;11.55;;;7.45;;
27223;SDS011;14965;50.660;13.226;2022-11-15T08:46:19;12.77;;;7.30;;
27223;SDS011;14965;50.660;13.226;2022-11-15T08:48:45;15.70;;;9.98;;
27223;SDS011;14965;50.660;13.226;2022-11-15T08:51:11;13.68;;;8.73;;
27223;SDS011;14965;50.660;13.226;2022-11-15T08:53:37;17.73;;;11.57;;
27223;SDS011;14965;50.660;13.226;2022-11-15T08:56:06;18.25;;;11.63;;
27223;SDS011;14965;50.660;13.226;2022-11-15T08:58:35;13.57;;;9.03;;
27223;SDS011;14965;50.660;13.226;2022-11-15T09:01:01;11.60;;;7.22;;
27223;SDS011;14965;50.660;13.226;2022-11-15T09:03:28;13.02;;;9.32;;
27223;SDS011;14965;50.660;13.226;2022-11-15T09:05:55;13.52;;;8.18;;
27223;SDS011;14965;50.660;13.226;2022-11-15T09:08:22;12.02;;;7.70;;
27223;SDS011;14965;50.660;13.226;2022-11-15T09:10:49;15.18;;;8.75;;
27223;SDS011;14965;50.660;13.226;2022-11-15T09:13:15;13.25;;;7.72;;
27223;SDS011;14965;50.660;13.226;2022-11-15T09:15:42;11.48;;;6.70;;
27223;SDS011;14965;50.660;13.226;2022-11-15T09:18:09;11.70;;;6.72;;
27223;SDS011;14965;50.660;13.226;2022-11-15T09:20:35;10.07;;;5.80;;
27223;SDS011;14965;50.660;13.226;2022-11-15T09:25:30;9.93;;;5.50;;
27223;SDS011;14965;50.660;13.226;2022-11-15T09:28:03;9.13;;;5.43;;
27223;SDS011;14965;50.660;13.226;2022-11-15T09:30:32;8.45;;;5.50;;
27223;SDS011;14965;50.660;13.226;2022-11-15T09:32:59;10.35;;;6.10;;
27223;SDS011;14965;50.660;13.226;2022-11-15T09:35:32;7.85;;;5.32;;
27223;SDS011;14965;50.660;13.226;2022-11-15T09:37:58;9.90;;;5.10;;
27223;SDS011;14965;50.660;13.226;2022-11-15T09:40:25;9.27;;;5.28;;
27223;SDS011;14965;50.660;13.226;2022-11-15T09:43:02;6.90;;;4.75;;
27223;SDS011;14965;50.660;13.226;2022-11-15T09:45:51;7.45;;;4.80;;
27223;SDS011;14965;50.660;13.226;2022-11-15T09:48:37;11.30;;;5.38;;
27223;SDS011;14965;50.660;13.226;2022-11-15T09:51:18;8.63;;;5.25;;
27223;SDS011;14965;50.660;13.226;2022-11-15T09:53:56;7.10;;;4.47;;
27223;SDS011;14965;50.660;13.226;2022-11-15T09:56:29;7.28;;;4.82;;
27223;SDS011;14965;50.660;13.226;2022-11-15T09:59:03;10.68;;;5.32;;
27223;SDS011;14965;50.660;13.226;2022-11-15T10:01:54;7.38;;;4.05;;
27223;SDS011;14965;50.660;13.226;2022-11-15T10:04:36;7.13;;;4.30;;
27223;SDS011;14965;50.660;13.226;2022-11-15T10:07:05;9.02;;;4.57;;
27223;SDS011;14965;50.660;13.226;2022-11-15T10:09:42;7.25;;;4.40;;
27223;SDS011;14965;50.660;13.226;2022-11-15T10:12:13;8.15;;;4.72;;
27223;SDS011;14965;50.660;13.226;2022-11-15T10:14:40;6.97;;;4.47;;
27223;SDS011;14965;50.660;13.226;2022-11-15T10:17:29;6.75;;;4.20;;
27223;SDS011;14965;50.660;13.226;2022-11-15T10:20:23;9.80;;;4.47;;
27223;SDS011;14965;50.660;13.226;2022-11-15T10:22:52;7.82;;;4.38;;
27223;SDS011;14965;50.660;13.226;2022-11-15T10:25:22;8.60;;;5.18;;
27223;SDS011;14965;50.660;13.226;2022-11-15T10:27:55;8.65;;;4.60;;
27223;SDS011;14965;50.660;13.226;2022-11-15T10:30:30;7.55;;;4.43;;
27223;SDS011;14965;50.660;13.226;2022-11-15T10:32:59;9.52;;;4.47;;
27223;SDS011;14965;50.660;13.226;2022-11-15T10:35:47;7.88;;;4.35;;
27223;SDS011;14965;50.660;13.226;2022-11-15T10:38:13;7.72;;;4.22;;
27223;SDS011;14965;50.660;13.226;2022-11-15T10:40:39;7.53;;;4.50;;
27223;SDS011;14965;50.660;13.226;2022-11-15T10:43:13;8.10;;;4.30;;
27223;SDS011;14965;50.660;13.226;2022-11-15T10:45:42;8.63;;;4.18;;
27223;SDS011;14965;50.660;13.226;2022-11-15T10:48:19;5.97;;;4.07;;
27223;SDS011;14965;50.660;13.226;2022-11-15T10:50:50;9.73;;;4.15;;
27223;SDS011;14965;50.660;13.226;2022-11-15T10:53:23;5.40;;;4.03;;
27223;SDS011;14965;50.660;13.226;2022-11-15T10:55:56;8.15;;;3.78;;
27223;SDS011;14965;50.660;13.226;2022-11-15T10:58:29;6.75;;;3.95;;
27223;SDS011;14965;50.660;13.226;2022-11-15T11:01:10;5.88;;;3.67;;
27223;SDS011;14965;50.660;13.226;2022-11-15T11:03:43;8.10;;;3.60;;
27223;SDS011;14965;50.660;13.226;2022-11-15T11:06:23;6.15;;;3.33;;
27223;SDS011;14965;50.660;13.226;2022-11-15T11:08:54;4.47;;;3.22;;
27223;SDS011;14965;50.660;13.226;2022-11-15T11:11:23;4.85;;;3.53;;
27223;SDS011;14965;50.660;13.226;2022-11-15T11:13:50;6.10;;;3.55;;
27223;SDS011;14965;50.660;13.226;2022-11-15T11:19:24;7.00;;;3.33;;
27223;SDS011;14965;50.660;13.226;2022-11-15T11:22:19;4.35;;;3.17;;
27223;SDS011;14965;50.660;13.226;2022-11-15T11:24:56;6.50;;;3.58;;
27223;SDS011;14965;50.660;13.226;2022-11-15T11:27:38;5.47;;;3.53;;
27223;SDS011;14965;50.660;13.226;2022-11-15T11:30:23;6.00;;;3.13;;
27223;SDS011;14965;50.660;13.226;2022-11-15T11:33:10;6.07;;;3.40;;
27223;SDS011;14965;50.660;13.226;2022-11-15T11:35:49;4.95;;;3.45;;
27223;SDS011;14965;50.660;13.226;2022-11-15T11:38:39;4.07;;;2.97;;
27223;SDS011;14965;50.660;13.226;2022-11-15T11:41:30;6.70;;;3.40;;
27223;SDS011;14965;50.660;13.226;2022-11-15T11:44:23;5.05;;;3.10;;
27223;SDS011;14965;50.660;13.226;2022-11-15T11:46:59;5.75;;;2.92;;
27223;SDS011;14965;50.660;13.226;2022-11-15T11:49:31;7.20;;;3.33;;
27223;SDS011;14965;50.660;13.226;2022-11-15T11:52:08;6.65;;;3.28;;
27223;SDS011;14965;50.660;13.226;2022-11-15T11:54:45;5.30;;;2.70;;
27223;SDS011;14965;50.660;13.226;2022-11-15T11:57:25;5.20;;;2.55;;
27223;SDS011;14965;50.660;13.226;2022-11-15T12:00:04;5.82;;;2.90;;
27223;SDS011;14965;50.660;13.226;2022-11-15T12:02:43;5.93;;;2.97;;
27223;SDS011;14965;50.660;13.226;2022-11-15T12:05:18;4.03;;;2.85;;
27223;SDS011;14965;50.660;13.226;2022-11-15T12:07:52;5.25;;;3.10;;
27223;SDS011;14965;50.660;13.226;2022-11-15T12:10:38;4.63;;;2.90;;
27223;SDS011;14965;50.660;13.226;2022-11-15T12:13:11;4.70;;;2.90;;
27223;SDS011;14965;50.660;13.226;2022-11-15T12:15:44;5.10;;;2.75;;
27223;SDS011;14965;50.660;13.226;2022-11-15T12:18:21;5.68;;;2.63;;
27223;SDS011;14965;50.660;13.226;2022-11-15T12:20:49;5.05;;;2.75;;
27223;SDS011;14965;50.660;13.226;2022-11-15T12:23:25;4.75;;;2.70;;
27223;SDS011;14965;50.660;13.226;2022-11-15T12:25:58;5.78;;;2.60;;
27223;SDS011;14965;50.660;13.226;2022-11-15T12:28:33;5.95;;;2.72;;
27223;SDS011;14965;50.660;13.226;2022-11-15T12:31:09;5.13;;;3.30;;
27223;SDS011;14965;50.660;13.226;2022-11-15T12:33:43;7.87;;;3.13;;
27223;SDS011;14965;50.660;13.226;2022-11-15T12:36:27;6.15;;;2.88;;
27223;SDS011;14965;50.660;13.226;2022-11-15T12:41:31;8.85;;;3.38;;
27223;SDS011;14965;50.660;13.226;2022-11-15T12:43:59;5.10;;;2.75;;
27223;SDS011;14965;50.660;13.226;2022-11-15T12:49:44;7.55;;;3.00;;
27223;SDS011;14965;50.660;13.226;2022-11-15T12:52:12;5.88;;;3.08;;
27223;SDS011;14965;50.660;13.226;2022-11-15T12:54:51;4.70;;;2.42;;
27223;SDS011;14965;50.660;13.226;2022-11-15T12:57:38;6.38;;;3.35;;
27223;SDS011;14965;50.660;13.226;2022-11-15T13:03:23;8.02;;;3.22;;
27223;SDS011;14965;50.660;13.226;2022-11-15T13:05:55;8.77;;;3.45;;
27223;SDS011;14965;50.660;13.226;2022-11-15T13:08:39;9.18;;;5.60;;
27223;SDS011;14965;50.660;13.226;2022-11-15T13:20:01;8.30;;;3.65;;
27223;SDS011;14965;50.660;13.226;2022-11-15T13:22:45;7.18;;;3.65;;
27223;SDS011;14965;50.660;13.226;2022-11-15T13:25:18;7.15;;;3.50;;
27223;SDS011;14965;50.660;13.226;2022-11-15T13:27:58;5.40;;;3.35;;
27223;SDS011;14965;50.660;13.226;2022-11-15T13:30:29;6.55;;;3.70;;
27223;SDS011;14965;50.660;13.226;2022-11-15T13:35:27;9.50;;;3.60;;
27223;SDS011;14965;50.660;13.226;2022-11-15T13:37:58;4.75;;;3.40;;
27223;SDS011;14965;50.660;13.226;2022-11-15T13:40:34;5.72;;;3.40;;
27223;SDS011;14965;50.660;13.226;2022-11-15T13:43:13;7.57;;;3.30;;
27223;SDS011;14965;50.660;13.226;2022-11-15T13:46:09;7.43;;;3.58;;
27223;SDS011;14965;50.660;13.226;2022-11-15T13:48:38;11.95;;;3.80;;
27223;SDS011;14965;50.660;13.226;2022-11-15T13:51:06;6.22;;;3.80;;
27223;SDS011;14965;50.660;13.226;2022-11-15T13:53:40;6.10;;;3.33;;
27223;SDS011;14965;50.660;13.226;2022-11-15T13:56:11;10.55;;;3.45;;
27223;SDS011;14965;50.660;13.226;2022-11-15T13:58:38;6.13;;;3.60;;
27223;SDS011;14965;50.660;13.226;2022-11-15T14:01:04;9.05;;;3.80;;
27223;SDS011;14965;50.660;13.226;2022-11-15T14:03:34;8.93;;;3.97;;
27223;SDS011;14965;50.660;13.226;2022-11-15T14:06:12;7.55;;;3.70;;
27223;SDS011;14965;50.660;13.226;2022-11-15T14:08:41;13.98;;;5.95;;
27223;SDS011;14965;50.660;13.226;2022-11-15T14:11:24;10.15;;;4.88;;
27223;SDS011;14965;50.660;13.226;2022-11-15T14:14:01;8.45;;;5.15;;
27223;SDS011;14965;50.660;13.226;2022-11-15T14:16:38;7.88;;;4.05;;
27223;SDS011;14965;50.660;13.226;2022-11-15T14:19:09;9.55;;;4.30;;
27223;SDS011;14965;50.660;13.226;2022-11-15T14:24:43;4.75;;;3.28;;
27223;SDS011;14965;50.660;13.226;2022-11-15T14:27:15;8.25;;;3.90;;
27223;SDS011;14965;50.660;13.226;2022-11-15T14:29:43;5.60;;;3.95;;
27223;SDS011;14965;50.660;13.226;2022-11-15T14:32:12;11.65;;;3.85;;
27223;SDS011;14965;50.660;13.226;2022-11-15T14:34:42;9.35;;;3.88;;
27223;SDS011;14965;50.660;13.226;2022-11-15T14:37:11;5.40;;;3.78;;
27223;SDS011;14965;50.660;13.226;2022-11-15T14:39:46;8.23;;;4.22;;
27223;SDS011;14965;50.660;13.226;2022-11-15T14:42:13;9.02;;;4.25;;
27223;SDS011;14965;50.660;13.226;2022-11-15T14:44:39;7.75;;;4.10;;
27223;SDS011;14965;50.660;13.226;2022-11-15T14:47:05;7.93;;;4.30;;
27223;SDS011;14965;50.660;13.226;2022-11-15T14:49:31;7.05;;;4.10;;
27223;SDS011;14965;50.660;13.226;2022-11-15T14:51:58;9.88;;;4.22;;
27223;SDS011;14965;50.660;13.226;2022-11-15T14:54:24;8.65;;;4.30;;
27223;SDS011;14965;50.660;13.226;2022-11-15T14:56:49;6.93;;;4.22;;
27223;SDS011;14965;50.660;13.226;2022-11-15T14:59:17;8.85;;;4.78;;
27223;SDS011;14965;50.660;13.226;2022-11-15T15:01:43;8.27;;;4.63;;
27223;SDS011;14965;50.660;13.226;2022-11-15T15:04:09;8.00;;;4.50;;
27223;SDS011;14965;50.660;13.226;2022-11-15T15:06:36;7.60;;;4.32;;